Terminal Aerodrome Forecast
Issued by NWS

Current Version | Previous Version | Text Only | Print | Product List | Glossary On
Versions: 1 2 3 4 5 6 7 8 9 10 11 12
000
FTUS45 KRIW 030500
TAFWRL
TAF
KWRL 030524Z 0306/0406 15005KT P6SM SKC
     FM032100 25015G25KT P6SM FEW150
     FM040100 33014KT P6SM FEW150=

USA.gov is the U.S. government's official web portal to all federal, state and local government web resources and services.